createdAt,value
2018-03-25T00:01:39.090Z,94.80
2018-03-25T00:04:07.655Z,95.10
2018-03-25T00:06:36.258Z,95.50
2018-03-25T00:09:05.748Z,95.30
2018-03-25T00:11:34.341Z,95.30
2018-03-25T00:14:02.905Z,95.40
2018-03-25T00:16:32.202Z,95.60
2018-03-25T00:19:00.637Z,95.60
2018-03-25T00:21:29.266Z,95.60
2018-03-25T00:23:58.464Z,95.50
2018-03-25T00:26:27.154Z,95.50
2018-03-25T00:28:55.549Z,95.60
2018-03-25T00:31:23.931Z,95.20
2018-03-25T00:33:52.409Z,95.40
2018-03-25T00:36:20.981Z,95.50
2018-03-25T00:38:49.555Z,95.50
2018-03-25T00:41:18.548Z,95.70
2018-03-25T00:43:47.132Z,95.80
2018-03-25T00:46:15.723Z,95.70
2018-03-25T00:48:44.296Z,95.50
2018-03-25T00:51:13.459Z,96.00
2018-03-25T00:53:41.839Z,96.10
2018-03-25T00:56:10.456Z,96.10
2018-03-25T00:58:39.042Z,95.90
2018-03-25T01:01:12.673Z,96.00
2018-03-25T01:03:42.045Z,95.90
2018-03-25T01:06:10.635Z,96.00
2018-03-25T01:08:39.206Z,95.90
2018-03-25T01:11:08.506Z,96.50
2018-03-25T01:13:36.984Z,96.50
2018-03-25T01:16:12.340Z,96.00
2018-03-25T01:18:41.012Z,96.10
2018-03-25T01:21:09.459Z,96.30
2018-03-25T01:23:38.077Z,96.50
2018-03-25T01:26:07.479Z,96.50
2018-03-25T01:28:35.976Z,96.60
2018-03-25T01:31:04.543Z,96.70
2018-03-25T01:33:33.037Z,96.20
2018-03-25T01:36:01.606Z,96.10
2018-03-25T01:38:30.191Z,95.90
2018-03-25T01:40:58.663Z,96.30
2018-03-25T01:43:27.154Z,96.40
2018-03-25T01:45:55.584Z,96.30
2018-03-25T01:48:24.031Z,96.70
2018-03-25T01:50:52.724Z,96.30
2018-03-25T01:53:21.287Z,96.40
2018-03-25T01:55:49.734Z,96.70
2018-03-25T01:58:18.134Z,96.70
2018-03-25T02:00:47.313Z,96.40
2018-03-25T02:03:16.653Z,96.50
2018-03-25T02:05:45.159Z,96.60
2018-03-25T02:08:13.698Z,96.70
2018-03-25T02:10:42.998Z,96.50
2018-03-25T02:13:11.426Z,96.70
2018-03-25T02:15:39.844Z,97.20
2018-03-25T02:18:08.545Z,96.60
2018-03-25T02:20:37.229Z,97.20
2018-03-25T02:23:05.817Z,97.20
2018-03-25T02:25:34.313Z,97.20
2018-03-25T02:28:02.778Z,97.00
2018-03-25T02:30:31.218Z,97.50
2018-03-25T02:32:59.620Z,97.00
2018-03-25T02:35:28.776Z,97.20
2018-03-25T02:37:57.983Z,97.30
2018-03-25T02:40:26.437Z,97.40
2018-03-25T02:42:54.993Z,97.10
2018-03-25T02:45:23.575Z,97.00
2018-03-25T02:47:52.078Z,97.60
2018-03-25T02:50:20.637Z,97.50
2018-03-25T02:52:49.138Z,97.50
2018-03-25T02:55:17.698Z,97.90
2018-03-25T02:57:46.186Z,97.50
2018-03-25T03:00:14.669Z,97.60
2018-03-25T03:02:43.243Z,97.40
2018-03-25T03:05:11.637Z,97.60
2018-03-25T03:07:40.031Z,97.70
2018-03-25T03:10:08.689Z,98.00
2018-03-25T03:12:37.191Z,98.10
2018-03-25T03:15:05.851Z,97.50
2018-03-25T03:17:34.445Z,98.10
2018-03-25T03:20:03.017Z,97.90
2018-03-25T03:22:31.702Z,97.90
2018-03-25T03:25:01.002Z,98.20
2018-03-25T03:27:29.576Z,98.20
2018-03-25T03:29:58.715Z,98.40
2018-03-25T03:32:27.183Z,98.50
2018-03-25T03:34:58.750Z,98.40
2018-03-25T03:37:27.293Z,98.40
2018-03-25T03:39:56.505Z,98.20
2018-03-25T03:42:25.084Z,98.30
2018-03-25T03:44:53.457Z,98.30
2018-03-25T03:47:22.682Z,98.50
2018-03-25T03:49:51.069Z,98.60
2018-03-25T03:52:19.614Z,98.60
2018-03-25T03:54:48.199Z,98.40
2018-03-25T03:57:16.780Z,98.40
2018-03-25T03:59:45.943Z,98.30
2018-03-25T04:02:14.453Z,98.40
2018-03-25T04:04:43.045Z,98.50
2018-03-25T04:07:11.627Z,98.40
2018-03-25T04:09:40.214Z,98.30
2018-03-25T04:12:08.706Z,98.30
2018-03-25T04:14:37.271Z,98.30
2018-03-25T04:17:06.162Z,98.40
2018-03-25T04:19:35.400Z,98.40
2018-03-25T04:22:03.870Z,98.40
2018-03-25T04:24:32.423Z,98.20
2018-03-25T04:27:01.730Z,98.20
2018-03-25T04:29:30.139Z,98.20
2018-03-25T04:31:58.685Z,98.20
2018-03-25T04:34:27.267Z,98.20
2018-03-25T04:36:55.851Z,98.00
2018-03-25T04:39:24.607Z,98.00
2018-03-25T04:41:52.984Z,98.10
2018-03-25T04:44:21.357Z,98.10
2018-03-25T04:46:49.794Z,98.00
2018-03-25T04:49:18.254Z,98.00
2018-03-25T04:51:47.438Z,97.90
2018-03-25T04:54:16.573Z,97.90
2018-03-25T04:56:44.954Z,98.00
2018-03-25T04:59:13.346Z,97.90
2018-03-25T05:01:41.887Z,97.90
2018-03-25T05:04:10.299Z,97.70
2018-03-25T05:06:38.661Z,97.70
2018-03-25T05:09:07.145Z,97.60
2018-03-25T05:11:35.515Z,97.60
2018-03-25T05:14:04.087Z,97.60
2018-03-25T05:16:32.572Z,97.60
2018-03-25T05:19:01.865Z,97.40
2018-03-25T05:21:30.269Z,97.50
2018-03-25T05:23:58.680Z,97.40
2018-03-25T05:26:27.310Z,97.30
2018-03-25T05:28:55.719Z,97.30
2018-03-25T05:31:24.377Z,97.30
2018-03-25T05:33:53.685Z,97.30
2018-03-25T05:36:22.180Z,97.30
2018-03-25T05:38:50.545Z,97.30
2018-03-25T05:41:19.037Z,97.20
2018-03-25T05:43:47.438Z,97.10
2018-03-25T05:46:15.806Z,97.20
2018-03-25T05:48:44.458Z,97.20
2018-03-25T05:51:13.601Z,97.20
2018-03-25T05:53:42.069Z,97.30
2018-03-25T05:56:10.608Z,97.20
2018-03-25T06:01:13.325Z,97.10
2018-03-25T06:06:15.248Z,96.90
2018-03-25T06:08:43.872Z,96.80
2018-03-25T06:11:12.350Z,96.80
2018-03-25T06:13:41.502Z,96.50
2018-03-25T06:16:10.083Z,96.50
2018-03-25T06:18:38.526Z,96.70
2018-03-25T06:21:07.096Z,96.30
2018-03-25T06:23:36.266Z,96.20
2018-03-25T06:26:04.718Z,96.30
2018-03-25T06:28:33.272Z,96.20
2018-03-25T06:31:01.644Z,96.10
2018-03-25T06:33:30.047Z,96.10
2018-03-25T06:35:58.466Z,96.00
2018-03-25T06:38:26.923Z,96.00
2018-03-25T06:40:55.299Z,95.90
2018-03-25T06:43:23.848Z,95.90
2018-03-25T06:45:52.290Z,95.90
2018-03-25T06:48:21.501Z,95.90
2018-03-25T06:50:50.802Z,95.90
2018-03-25T06:53:20.024Z,95.60
2018-03-25T06:55:48.504Z,95.60
2018-03-25T06:58:16.908Z,95.60
2018-03-25T07:00:45.306Z,95.60
2018-03-25T07:03:15.364Z,95.60
2018-03-25T07:05:44.517Z,95.50
2018-03-25T07:08:12.909Z,95.60
2018-03-25T07:10:41.526Z,95.30
2018-03-25T07:13:10.736Z,95.40
2018-03-25T07:15:39.240Z,95.40
2018-03-25T07:18:07.778Z,95.20
2018-03-25T07:20:36.358Z,95.10
2018-03-25T07:23:05.569Z,94.90
2018-03-25T07:25:33.996Z,95.00
2018-03-25T07:28:02.369Z,94.80
2018-03-25T07:30:30.782Z,94.60
2018-03-25T07:32:59.393Z,94.30
2018-03-25T07:35:27.783Z,94.20
2018-03-25T07:37:56.260Z,93.90
2018-03-25T07:40:24.630Z,93.80
2018-03-25T07:42:53.201Z,93.90
2018-03-25T07:45:21.628Z,93.60
2018-03-25T07:47:50.268Z,93.40
2018-03-25T07:50:18.715Z,93.40
2018-03-25T07:52:47.120Z,93.30
2018-03-25T07:55:16.338Z,93.10
2018-03-25T07:57:44.906Z,93.10
2018-03-25T08:00:14.050Z,92.70
2018-03-25T08:02:42.584Z,92.70
2018-03-25T08:05:11.727Z,92.50
2018-03-25T08:07:40.174Z,92.60
2018-03-25T08:10:08.741Z,92.10
2018-03-25T08:12:37.169Z,92.10
2018-03-25T08:15:05.702Z,92.10
2018-03-25T08:17:35.005Z,91.20
2018-03-25T08:20:03.587Z,91.20
2018-03-25T08:22:32.987Z,91.10
2018-03-25T08:25:01.486Z,91.10
2018-03-25T08:27:29.892Z,90.90
2018-03-25T08:29:58.432Z,90.40
2018-03-25T08:32:27.020Z,90.30
2018-03-25T08:34:55.460Z,90.20
2018-03-25T08:37:23.973Z,90.10
2018-03-25T08:39:53.278Z,90.00
2018-03-25T08:42:21.728Z,90.00
2018-03-25T08:44:50.338Z,88.90
2018-03-25T08:47:19.514Z,88.00
2018-03-25T08:49:47.890Z,87.90
2018-03-25T08:52:16.354Z,86.70
2018-03-25T08:54:44.772Z,87.10
2018-03-25T08:57:13.909Z,86.20
2018-03-25T08:59:42.552Z,86.20
2018-03-25T09:02:11.714Z,85.10
2018-03-25T09:04:40.238Z,85.00
2018-03-25T09:07:08.726Z,84.30
2018-03-25T09:09:37.291Z,84.40
2018-03-25T09:12:05.879Z,84.00
2018-03-25T09:14:34.466Z,83.30
2018-03-25T09:17:03.044Z,82.50
2018-03-25T09:19:31.938Z,82.70
2018-03-25T09:22:00.432Z,81.80
2018-03-25T09:24:29.002Z,80.80
2018-03-25T09:26:57.462Z,80.00
2018-03-25T09:29:26.677Z,79.40
2018-03-25T09:31:55.064Z,79.20
2018-03-25T09:34:23.482Z,78.90
2018-03-25T09:36:51.930Z,78.70
2018-03-25T09:39:20.415Z,78.10
2018-03-25T09:41:48.920Z,77.90
2018-03-25T09:44:17.379Z,78.00
2018-03-25T09:46:45.842Z,76.80
2018-03-25T09:49:14.421Z,76.30
2018-03-25T09:51:43.722Z,76.00
2018-03-25T09:54:12.622Z,76.00
2018-03-25T09:56:40.991Z,75.70
2018-03-25T09:59:09.394Z,74.70
2018-03-25T10:04:47.462Z,73.50
2018-03-25T10:07:15.973Z,74.30
2018-03-25T10:09:44.356Z,73.10
2018-03-25T10:12:12.846Z,72.70
2018-03-25T10:14:41.263Z,72.20
2018-03-25T10:17:09.711Z,72.20
2018-03-25T10:19:38.279Z,71.90
2018-03-25T10:22:06.765Z,71.30
2018-03-25T10:24:35.346Z,69.00
2018-03-25T10:27:03.747Z,69.10
2018-03-25T10:29:32.143Z,67.70
2018-03-25T10:32:00.787Z,67.10
2018-03-25T10:34:29.365Z,67.10
2018-03-25T10:36:58.563Z,66.50
2018-03-25T10:39:27.054Z,66.40
2018-03-25T10:41:55.727Z,65.90
2018-03-25T10:44:25.033Z,64.20
2018-03-25T10:46:53.613Z,63.90
2018-03-25T10:49:22.047Z,64.40
2018-03-25T10:51:50.573Z,64.20
2018-03-25T10:54:19.052Z,63.50
2018-03-25T10:56:48.351Z,62.50
2018-03-25T10:59:17.550Z,61.40
2018-03-25T11:01:46.703Z,60.80
2018-03-25T11:04:15.108Z,60.50
2018-03-25T11:06:43.530Z,60.60
2018-03-25T11:09:11.938Z,60.60
2018-03-25T11:11:45.087Z,60.10
2018-03-25T11:14:13.519Z,60.40
2018-03-25T11:16:41.926Z,60.20
2018-03-25T11:19:10.515Z,60.50
2018-03-25T11:21:39.218Z,59.60
2018-03-25T11:24:07.703Z,58.90
2018-03-25T11:26:36.184Z,57.80
2018-03-25T11:29:04.768Z,57.90
2018-03-25T11:31:33.151Z,59.00
2018-03-25T11:34:01.593Z,58.00
2018-03-25T11:36:30.773Z,57.40
2018-03-25T11:38:59.304Z,57.00
2018-03-25T11:41:27.689Z,57.30
2018-03-25T11:43:56.059Z,56.30
2018-03-25T11:46:24.623Z,56.60
2018-03-25T11:48:53.105Z,56.00
2018-03-25T11:51:22.509Z,55.90
2018-03-25T11:53:50.898Z,55.50
2018-03-25T11:56:19.470Z,55.70
2018-03-25T11:58:47.917Z,55.60
2018-03-25T12:01:16.322Z,55.40
2018-03-25T12:03:45.628Z,56.30
2018-03-25T12:06:14.310Z,56.30
2018-03-25T12:08:43.469Z,54.70
2018-03-25T12:11:12.734Z,54.80
2018-03-25T12:13:41.394Z,54.70
2018-03-25T12:16:09.846Z,54.80
2018-03-25T12:18:38.250Z,54.70
2018-03-25T12:21:07.468Z,53.70
2018-03-25T12:23:35.952Z,53.60
2018-03-25T12:26:04.328Z,54.00
2018-03-25T12:28:32.895Z,52.60
2018-03-25T12:31:02.292Z,52.80
2018-03-25T12:33:31.436Z,52.50
2018-03-25T12:35:59.970Z,52.20
2018-03-25T12:38:28.412Z,52.50
2018-03-25T12:40:58.469Z,51.20
2018-03-25T12:43:26.874Z,51.00
2018-03-25T12:45:55.438Z,51.40
2018-03-25T12:48:24.012Z,51.80
2018-03-25T12:50:52.430Z,51.40
2018-03-25T12:53:20.973Z,51.30
2018-03-25T12:55:49.477Z,51.30
2018-03-25T12:58:17.956Z,51.90
2018-03-25T13:00:46.623Z,51.40
2018-03-25T13:03:15.203Z,51.10
2018-03-25T13:05:43.791Z,51.10
2018-03-25T13:08:12.534Z,51.10
2018-03-25T13:10:40.914Z,50.50
2018-03-25T13:13:10.973Z,50.00
2018-03-25T13:15:40.379Z,49.70
2018-03-25T13:18:08.797Z,49.60
2018-03-25T13:20:37.439Z,50.30
2018-03-25T13:23:05.924Z,49.30
2018-03-25T13:25:34.606Z,49.40
2018-03-25T13:28:03.045Z,49.20
2018-03-25T13:30:31.669Z,49.60
2018-03-25T13:33:00.169Z,50.20
2018-03-25T13:35:28.647Z,49.70
2018-03-25T13:37:57.033Z,49.20
2018-03-25T13:40:25.613Z,48.90
2018-03-25T13:42:54.082Z,48.60
2018-03-25T13:45:22.514Z,48.20
2018-03-25T13:47:51.439Z,48.20
2018-03-25T13:50:20.598Z,48.90
2018-03-25T13:52:48.992Z,48.80
2018-03-25T13:55:17.600Z,49.40
2018-03-25T13:57:46.903Z,49.00
2018-03-25T14:00:15.326Z,49.00
2018-03-25T14:02:43.735Z,49.10
2018-03-25T14:05:12.162Z,49.40
2018-03-25T14:07:40.721Z,49.00
2018-03-25T14:10:10.023Z,50.20
2018-03-25T14:12:38.704Z,50.10
2018-03-25T14:15:07.879Z,51.10
2018-03-25T14:17:37.018Z,50.30
2018-03-25T14:20:05.576Z,50.30
2018-03-25T14:22:34.880Z,49.50
2018-03-25T14:25:03.570Z,49.30
2018-03-25T14:27:32.150Z,49.30
2018-03-25T14:30:01.362Z,48.70
2018-03-25T14:32:29.840Z,48.60
2018-03-25T14:34:58.332Z,49.00
2018-03-25T14:37:26.807Z,49.00
2018-03-25T14:39:55.371Z,49.10
2018-03-25T14:42:23.958Z,49.60
2018-03-25T14:44:52.540Z,49.00
2018-03-25T14:47:21.728Z,48.20
2018-03-25T14:49:50.910Z,48.90
2018-03-25T14:52:19.415Z,48.80
2018-03-25T14:54:47.997Z,49.40
2018-03-25T14:57:16.582Z,49.30
2018-03-25T14:59:45.269Z,49.40
2018-03-25T15:02:13.651Z,50.00
2018-03-25T15:04:42.225Z,49.80
2018-03-25T15:07:11.628Z,50.30
2018-03-25T15:09:40.019Z,50.20
2018-03-25T15:12:08.513Z,50.60
2018-03-25T15:14:37.071Z,50.80
2018-03-25T15:17:05.491Z,50.50
2018-03-25T15:19:33.926Z,50.30
2018-03-25T15:22:03.230Z,51.20
2018-03-25T15:24:31.648Z,51.10
2018-03-25T15:27:00.105Z,50.70
2018-03-25T15:29:28.674Z,50.90
2018-03-25T15:31:57.254Z,51.20
2018-03-25T15:34:26.439Z,51.90
2018-03-25T15:36:55.591Z,51.70
2018-03-25T15:39:24.126Z,51.70
2018-03-25T15:41:53.535Z,51.80
2018-03-25T15:44:21.959Z,51.70
2018-03-25T15:46:50.387Z,52.10
2018-03-25T15:49:19.590Z,52.00
2018-03-25T15:51:48.888Z,52.10
2018-03-25T15:54:17.475Z,52.00
2018-03-25T15:56:46.057Z,51.90
2018-03-25T15:59:15.359Z,52.30
2018-03-25T16:01:44.498Z,52.30
2018-03-25T16:04:12.918Z,52.30
2018-03-25T16:06:42.113Z,52.70
2018-03-25T16:09:11.452Z,52.50
2018-03-25T16:11:39.833Z,52.50
2018-03-25T16:14:08.411Z,52.60
2018-03-25T16:16:36.976Z,52.80
2018-03-25T16:19:05.350Z,53.20
2018-03-25T16:21:34.545Z,53.20
2018-03-25T16:24:03.972Z,53.40
2018-03-25T16:26:32.523Z,53.40
2018-03-25T16:29:01.676Z,53.40
2018-03-25T16:31:30.216Z,53.40
2018-03-25T16:33:58.704Z,53.90
2018-03-25T16:36:27.284Z,53.70
2018-03-25T16:38:55.861Z,54.00
2018-03-25T16:41:24.649Z,54.00
2018-03-25T16:43:53.232Z,54.20
2018-03-25T16:46:21.706Z,54.30
2018-03-25T16:48:50.907Z,54.80
2018-03-25T16:51:20.212Z,54.80
2018-03-25T16:53:49.507Z,54.90
2018-03-25T16:56:18.909Z,54.80
2018-03-25T16:58:48.046Z,55.20
2018-03-25T17:01:16.592Z,55.20
2018-03-25T17:03:45.087Z,55.10
2018-03-25T17:06:13.473Z,55.50
2018-03-25T17:08:41.858Z,55.10
2018-03-25T17:11:10.409Z,54.90
2018-03-25T17:13:38.872Z,55.20
2018-03-25T17:16:08.040Z,55.80
2018-03-25T17:18:36.740Z,55.20
2018-03-25T17:21:05.356Z,54.80
2018-03-25T17:23:33.836Z,55.10
2018-03-25T17:26:02.227Z,55.70
2018-03-25T17:28:30.639Z,55.60
2018-03-25T17:30:59.011Z,55.70
2018-03-25T17:33:27.577Z,55.90
2018-03-25T17:35:56.056Z,56.10
2018-03-25T17:38:24.620Z,56.20
2018-03-25T17:40:53.802Z,56.70
2018-03-25T17:43:23.009Z,57.70
2018-03-25T17:45:52.581Z,57.70
2018-03-25T17:48:21.105Z,57.70
2018-03-25T17:50:49.603Z,58.10
2018-03-25T17:53:18.043Z,58.40
2018-03-25T17:55:46.705Z,58.80
2018-03-25T17:58:15.231Z,59.40
2018-03-25T18:00:43.811Z,59.50
2018-03-25T18:03:12.397Z,60.00
2018-03-25T18:05:42.110Z,60.90
2018-03-25T18:08:10.691Z,61.00
2018-03-25T18:10:39.186Z,61.10
2018-03-25T18:13:07.655Z,61.80
2018-03-25T18:15:36.055Z,62.00
2018-03-25T18:18:04.506Z,62.60
2018-03-25T18:20:32.893Z,62.60
2018-03-25T18:23:01.279Z,63.00
2018-03-25T18:25:29.743Z,63.50
2018-03-25T18:27:58.140Z,64.20
2018-03-25T18:30:26.531Z,64.40
2018-03-25T18:32:54.952Z,65.20
2018-03-25T18:35:24.214Z,66.00
2018-03-25T18:37:52.679Z,65.60
2018-03-25T18:40:21.247Z,66.20
2018-03-25T18:42:49.627Z,66.20
2018-03-25T18:45:18.037Z,66.40
2018-03-25T18:47:46.446Z,66.40
2018-03-25T18:50:16.115Z,67.50
2018-03-25T18:52:44.675Z,67.70
2018-03-25T18:55:13.055Z,67.90
2018-03-25T18:57:41.552Z,68.30
2018-03-25T19:00:10.028Z,69.10
2018-03-25T19:02:38.400Z,68.60
2018-03-25T19:05:06.972Z,68.80
2018-03-25T19:07:36.134Z,68.90
2018-03-25T19:10:04.756Z,69.10
2018-03-25T19:12:33.150Z,69.30
2018-03-25T19:15:01.580Z,70.00
2018-03-25T19:17:30.911Z,70.30
2018-03-25T19:20:00.212Z,71.20
2018-03-25T19:22:28.798Z,72.20
2018-03-25T19:24:57.326Z,70.90
2018-03-25T19:27:25.861Z,71.30
2018-03-25T19:29:54.549Z,72.30
2018-03-25T19:32:23.686Z,71.90
2018-03-25T19:34:52.058Z,72.10
2018-03-25T19:37:20.927Z,72.10
2018-03-25T19:39:49.304Z,71.80
2018-03-25T19:42:17.790Z,70.80
2018-03-25T19:44:46.462Z,70.20
2018-03-25T19:47:15.673Z,69.80
2018-03-25T19:49:44.245Z,69.80
2018-03-25T19:52:12.742Z,69.50
2018-03-25T19:54:41.142Z,69.40
2018-03-25T19:57:09.780Z,69.20
2018-03-25T19:59:38.365Z,69.20
2018-03-25T20:02:06.783Z,69.10
2018-03-25T20:04:35.739Z,69.40
2018-03-25T20:07:04.171Z,69.50
2018-03-25T20:09:32.564Z,69.40
2018-03-25T20:12:01.140Z,69.50
2018-03-25T20:14:30.304Z,69.90
2018-03-25T20:16:58.796Z,70.00
2018-03-25T20:19:27.335Z,70.00
2018-03-25T20:21:56.634Z,70.20
2018-03-25T20:24:25.794Z,70.80
2018-03-25T20:26:55.001Z,70.60
2018-03-25T20:29:23.402Z,70.70
2018-03-25T20:31:52.610Z,71.20
2018-03-25T20:34:21.185Z,71.50
2018-03-25T20:36:50.322Z,70.80
2018-03-25T20:39:18.722Z,70.90
2018-03-25T20:41:47.160Z,71.90
2018-03-25T20:44:15.641Z,71.00
2018-03-25T20:46:44.049Z,71.00
2018-03-25T20:49:12.483Z,71.10
2018-03-25T20:51:40.869Z,71.50
2018-03-25T20:54:09.280Z,71.90
2018-03-25T20:56:38.092Z,72.20
2018-03-25T20:59:06.626Z,72.40
2018-03-25T21:01:35.083Z,72.40
2018-03-25T21:04:03.680Z,73.30
2018-03-25T21:06:32.065Z,73.30
2018-03-25T21:09:00.452Z,73.60
2018-03-25T21:11:28.888Z,73.50
2018-03-25T21:13:57.390Z,73.80
2018-03-25T21:16:25.815Z,73.80
2018-03-25T21:18:54.267Z,73.80
2018-03-25T21:21:22.639Z,74.20
2018-03-25T21:23:51.100Z,74.30
2018-03-25T21:26:20.409Z,75.50
2018-03-25T21:28:49.582Z,75.60
2018-03-25T21:31:18.805Z,75.90
2018-03-25T21:33:48.103Z,76.30
2018-03-25T21:36:17.250Z,76.60
2018-03-25T21:38:45.777Z,76.70
2018-03-25T21:41:14.984Z,76.90
2018-03-25T21:43:43.565Z,77.20
2018-03-25T21:46:12.727Z,77.20
2018-03-25T21:48:41.166Z,77.40
2018-03-25T21:51:12.378Z,77.50
2018-03-25T21:53:41.524Z,77.70
2018-03-25T21:56:10.056Z,77.80
2018-03-25T21:58:39.190Z,78.10
2018-03-25T22:01:07.761Z,79.00
2018-03-25T22:03:36.202Z,78.40
2018-03-25T22:06:05.392Z,79.00
2018-03-25T22:08:33.795Z,79.10
2018-03-25T22:11:02.378Z,78.90
2018-03-25T22:13:31.568Z,79.20
2018-03-25T22:16:00.693Z,79.30
2018-03-25T22:18:30.997Z,79.50
2018-03-25T22:20:59.407Z,78.90
2018-03-25T22:23:27.872Z,79.70
2018-03-25T22:25:56.241Z,81.70
2018-03-25T22:28:25.022Z,81.80
2018-03-25T22:30:54.316Z,82.00
2018-03-25T22:33:23.622Z,81.80
2018-03-25T22:35:52.051Z,81.90
2018-03-25T22:38:20.584Z,81.90
2018-03-25T22:40:49.880Z,81.90
2018-03-25T22:43:19.006Z,81.80
2018-03-25T22:45:47.663Z,81.90
2018-03-25T22:48:16.150Z,81.70
2018-03-25T22:50:44.639Z,81.70
2018-03-25T22:53:13.126Z,81.40
2018-03-25T22:55:41.589Z,81.60
2018-03-25T22:58:10.992Z,81.90
2018-03-25T23:00:40.287Z,81.70
2018-03-25T23:03:09.687Z,81.80
2018-03-25T23:05:39.018Z,82.10
2018-03-25T23:08:07.477Z,82.20
2018-03-25T23:10:35.970Z,82.40
2018-03-25T23:13:04.537Z,82.70
2018-03-25T23:15:33.679Z,83.40
2018-03-25T23:18:02.319Z,83.60
2018-03-25T23:20:30.826Z,83.70
2018-03-25T23:22:59.484Z,84.40
2018-03-25T23:25:27.979Z,83.30
2018-03-25T23:27:56.355Z,83.10
2018-03-25T23:30:24.920Z,82.80
2018-03-25T23:32:53.503Z,82.40
2018-03-25T23:35:21.993Z,82.20
2018-03-25T23:37:50.566Z,82.00
2018-03-25T23:40:19.973Z,81.60
2018-03-25T23:42:48.449Z,81.60
2018-03-25T23:45:17.605Z,81.30
2018-03-25T23:47:46.131Z,81.40
2018-03-25T23:50:14.573Z,81.50
2018-03-25T23:52:42.938Z,81.70
2018-03-25T23:55:11.362Z,81.50
2018-03-25T23:57:40.569Z,81.80
